Time;durP1;ratioP1;P1;durP2;ratioP2;P2;SDS_P1;SDS_P2;PMS_P1;PMS_P2;Temp;Humidity;BMP_temperature;BMP_pressure;BME280_temperature;BME280_humidity;BME280_pressure;Samples;Min_cycle;Max_cycle;Signal;HPM_P1;HPM_P2
2022/10/25 00:01:16;;;;;;;4.28;1.20;;;14.80;99.90;;;;;;5115540;28;20157;-50
2022/10/25 00:03:42;;;;;;;11.27;1.58;;;14.80;99.90;;;;;;5115769;28;20537;-50
2022/10/25 00:06:10;;;;;;;3.28;1.30;;;14.90;99.90;;;;;;5115532;28;20239;-51
2022/10/25 00:08:36;;;;;;;3.30;1.25;;;14.80;99.90;;;;;;5115276;28;20560;-50
2022/10/25 00:11:02;;;;;;;8.77;1.67;;;14.80;99.90;;;;;;5115422;28;20164;-50
2022/10/25 00:13:28;;;;;;;3.33;1.65;;;14.90;99.90;;;;;;5115817;28;20244;-50
2022/10/25 00:15:53;;;;;;;5.20;1.25;;;14.80;99.90;;;;;;5115349;28;20169;-51
2022/10/25 00:18:19;;;;;;;5.38;1.52;;;14.70;99.90;;;;;;5115294;28;20169;-50
2022/10/25 00:20:45;;;;;;;5.97;1.55;;;14.70;99.90;;;;;;5115176;28;20161;-51
2022/10/25 00:23:12;;;;;;;4.43;1.55;;;14.60;99.90;;;;;;5115362;28;20176;-50
2022/10/25 00:25:37;;;;;;;7.10;1.30;;;14.70;99.90;;;;;;5115196;28;20172;-50
2022/10/25 00:28:03;;;;;;;5.03;1.50;;;14.60;99.90;;;;;;5115043;28;20200;-50
2022/10/25 00:30:29;;;;;;;6.88;1.40;;;14.70;99.90;;;;;;5115389;28;20243;-50
2022/10/25 00:32:54;;;;;;;8.13;1.65;;;14.60;99.90;;;;;;5115738;28;20526;-50
2022/10/25 00:35:20;;;;;;;4.47;1.30;;;14.60;99.90;;;;;;5114943;28;20161;-50
2022/10/25 00:37:45;;;;;;;3.80;1.52;;;14.60;99.90;;;;;;5114971;28;20176;-51
2022/10/25 00:40:11;;;;;;;4.78;1.30;;;14.50;99.90;;;;;;5096545;28;20168;-50
2022/10/25 00:42:37;;;;;;;5.95;1.40;;;14.60;99.90;;;;;;5114715;28;20643;-50
2022/10/25 00:45:12;;;;;;;4.82;1.40;;;14.60;99.90;;;;;;5114730;28;20697;-50
2022/10/25 00:47:43;;;;;;;6.13;1.67;;;14.60;99.90;;;;;;5114960;28;20228;-50
2022/10/25 00:50:21;;;;;;;4.80;1.55;;;14.60;99.90;;;;;;5114676;28;20181;-51
2022/10/25 00:52:51;;;;;;;8.65;1.83;;;14.50;99.90;;;;;;5114591;28;20169;-50
2022/10/25 00:55:19;;;;;;;4.70;1.48;;;14.50;99.90;;;;;;5114530;28;20646;-50
2022/10/25 00:58:05;;;;;;;5.82;1.10;;;14.60;99.90;;;;;;5114403;28;20169;-51
2022/10/25 01:00:31;;;;;;;5.82;1.88;;;14.60;99.90;;;;;;5114646;28;20219;-50
2022/10/25 01:02:57;;;;;;;2.72;1.58;;;14.50;99.90;;;;;;5114951;28;20644;-50
2022/10/25 01:05:23;;;;;;;4.68;1.42;;;14.60;99.90;;;;;;5114533;28;20168;-52
2022/10/25 01:07:48;;;;;;;6.32;2.00;;;14.50;99.90;;;;;;5114472;28;20259;-52
2022/10/25 01:10:14;;;;;;;3.42;1.13;;;14.50;99.90;;;;;;5113812;28;20179;-52
2022/10/25 01:12:40;;;;;;;5.78;2.33;;;14.50;99.90;;;;;;5114223;28;20206;-51
2022/10/25 01:15:06;;;;;;;6.70;1.33;;;14.50;99.90;;;;;;5114468;28;20169;-51
2022/10/25 01:17:46;;;;;;;3.65;1.30;;;14.40;99.90;;;;;;5114134;28;20157;-51
2022/10/25 01:20:11;;;;;;;4.43;1.30;;;14.40;99.90;;;;;;5114205;28;20248;-52
2022/10/25 01:22:59;;;;;;;6.20;1.60;;;14.40;99.90;;;;;;5114088;28;20617;-51
2022/10/25 01:25:48;;;;;;;8.18;2.47;;;14.50;99.90;;;;;;5114643;28;20538;-51
2022/10/25 01:28:32;;;;;;;3.58;1.75;;;14.40;99.90;;;;;;5113844;28;20216;-51
2022/10/25 01:31:25;;;;;;;10.80;2.05;;;14.50;99.90;;;;;;5114213;28;20793;-51
2022/10/25 01:34:06;;;;;;;10.60;1.85;;;14.50;99.90;;;;;;5113847;28;20165;-52
2022/10/25 01:36:44;;;;;;;3.95;1.48;;;14.50;99.90;;;;;;5114072;28;20164;-51
2022/10/25 01:39:31;;;;;;;4.68;1.70;;;14.50;99.90;;;;;;5113921;28;20177;-52
2022/10/25 01:42:05;;;;;;;4.22;1.23;;;14.50;99.90;;;;;;5114028;28;20167;-51
2022/10/25 01:44:58;;;;;;;6.93;1.42;;;14.60;99.90;;;;;;5113603;28;20217;-52
2022/10/25 01:47:26;;;;;;;6.78;1.33;;;14.50;99.90;;;;;;5114179;28;20512;-52
2022/10/25 01:50:17;;;;;;;5.78;1.45;;;14.60;99.90;;;;;;5113438;28;20261;-52
2022/10/25 01:52:43;;;;;;;3.72;1.92;;;14.50;99.90;;;;;;5113480;28;20209;-50
2022/10/25 01:55:12;;;;;;;5.10;1.35;;;14.50;99.90;;;;;;5113330;28;20188;-51
2022/10/25 01:57:37;;;;;;;5.40;1.35;;;14.40;99.90;;;;;;5113209;28;20197;-50
2022/10/25 02:00:20;;;;;;;6.22;1.60;;;14.40;99.90;;;;;;5113265;28;20242;-50
2022/10/25 02:03:01;;;;;;;8.98;1.90;;;14.40;99.90;;;;;;5113158;28;20165;-50
2022/10/25 02:05:47;;;;;;;3.35;1.23;;;14.40;99.90;;;;;;5113435;28;20247;-50
2022/10/25 02:08:31;;;;;;;3.20;1.15;;;14.40;99.90;;;;;;5113119;28;20189;-49
2022/10/25 02:11:23;;;;;;;8.57;1.70;;;14.40;99.90;;;;;;5113425;28;20251;-50
2022/10/25 02:14:14;;;;;;;4.03;1.13;;;14.30;99.90;;;;;;5113014;28;20188;-50
2022/10/25 02:16:45;;;;;;;2.97;1.58;;;14.30;99.90;;;;;;5113071;28;20161;-50
2022/10/25 02:19:18;;;;;;;3.50;1.38;;;14.30;99.90;;;;;;5112885;28;20169;-50
2022/10/25 02:21:46;;;;;;;6.55;2.28;;;14.30;99.90;;;;;;5112192;28;20176;-50
2022/10/25 02:24:17;;;;;;;4.43;1.40;;;14.20;99.90;;;;;;5112763;28;20172;-50
2022/10/25 02:26:45;;;;;;;4.13;1.60;;;14.30;99.90;;;;;;5112717;28;20191;-50
2022/10/25 02:29:13;;;;;;;5.15;2.00;;;14.20;99.90;;;;;;5112677;28;20542;-50
2022/10/25 02:31:38;;;;;;;3.75;1.40;;;14.20;99.90;;;;;;5112717;28;20163;-50
2022/10/25 02:34:04;;;;;;;4.00;1.40;;;14.20;99.90;;;;;;5094460;28;20172;-50
2022/10/25 02:36:30;;;;;;;6.28;1.40;;;14.20;99.90;;;;;;5112583;28;20258;-50
2022/10/25 02:38:57;;;;;;;5.60;1.50;;;14.20;99.90;;;;;;5113039;28;20164;-50
2022/10/25 02:41:22;;;;;;;7.70;2.00;;;14.20;99.90;;;;;;5112180;28;20194;-50
2022/10/25 02:43:48;;;;;;;8.45;1.63;;;14.20;99.90;;;;;;5112377;28;20169;-50
2022/10/25 02:46:15;;;;;;;8.13;1.77;;;14.20;99.90;;;;;;5112464;28;20176;-51
2022/10/25 02:48:42;;;;;;;6.45;1.35;;;14.20;99.90;;;;;;5112357;28;20200;-50
2022/10/25 02:51:09;;;;;;;6.78;1.75;;;14.20;99.90;;;;;;5112295;28;20226;-51
2022/10/25 02:53:35;;;;;;;4.90;1.83;;;14.20;99.90;;;;;;5112335;28;20175;-51
2022/10/25 02:56:05;;;;;;;8.55;1.65;;;14.30;99.90;;;;;;5112207;28;20168;-50
2022/10/25 02:58:32;;;;;;;4.95;1.52;;;14.20;99.90;;;;;;5112142;28;20223;-50
2022/10/25 03:00:59;;;;;;;6.13;1.70;;;14.20;99.90;;;;;;5112266;28;20169;-50
2022/10/25 03:03:25;;;;;;;3.60;1.40;;;14.20;99.90;;;;;;5112675;28;20632;-51
2022/10/25 03:05:51;;;;;;;4.63;1.50;;;14.20;99.90;;;;;;5112207;28;20218;-52
2022/10/25 03:08:17;;;;;;;8.52;1.75;;;14.20;99.90;;;;;;5093811;28;20213;-50
2022/10/25 03:10:43;;;;;;;4.40;1.70;;;14.20;99.90;;;;;;5112175;28;20179;-51
2022/10/25 03:13:09;;;;;;;4.28;1.48;;;14.20;99.90;;;;;;5093914;28;20695;-50
2022/10/25 03:15:34;;;;;;;8.38;1.83;;;14.20;99.90;;;;;;5112131;28;20521;-50
2022/10/25 03:18:00;;;;;;;4.00;1.75;;;14.20;99.90;;;;;;5093852;28;20621;-50
2022/10/25 03:20:25;;;;;;;6.03;2.22;;;14.30;99.90;;;;;;5112207;28;20523;-50
2022/10/25 03:22:51;;;;;;;8.15;2.00;;;14.30;99.90;;;;;;5111972;28;20667;-51
2022/10/25 03:25:16;;;;;;;3.97;1.33;;;14.30;99.90;;;;;;5094034;28;20176;-51
2022/10/25 03:27:42;;;;;;;3.78;1.50;;;14.30;99.90;;;;;;5112107;28;20274;-51
2022/10/25 03:30:08;;;;;;;6.32;1.70;;;14.30;99.90;;;;;;5111805;28;20728;-50
2022/10/25 03:32:34;;;;;;;7.78;2.33;;;14.40;99.90;;;;;;5111954;28;20165;-52
2022/10/25 03:34:59;;;;;;;11.55;2.35;;;14.30;99.90;;;;;;5115805;28;20169;-51
2022/10/25 03:37:25;;;;;;;5.88;1.98;;;14.40;99.90;;;;;;5116400;28;20165;-51
2022/10/25 03:39:52;;;;;;;5.15;1.52;;;14.40;99.90;;;;;;5116143;28;20171;-51
2022/10/25 03:42:18;;;;;;;5.18;1.50;;;14.50;99.90;;;;;;5116071;28;20234;-51
2022/10/25 03:44:44;;;;;;;4.70;1.40;;;14.40;99.90;;;;;;5115942;28;20204;-52
2022/10/25 03:47:09;;;;;;;10.88;1.77;;;14.50;99.90;;;;;;5115993;28;20161;-51
2022/10/25 03:49:35;;;;;;;3.40;1.27;;;14.50;99.90;;;;;;5115793;28;20609;-51
2022/10/25 03:52:00;;;;;;;4.53;1.20;;;14.40;99.90;;;;;;5115764;28;20241;-52
2022/10/25 03:54:26;;;;;;;7.70;1.75;;;14.40;99.90;;;;;;5116049;28;20244;-51
2022/10/25 03:56:52;;;;;;;3.55;1.48;;;14.30;99.90;;;;;;5115736;28;20183;-51
2022/10/25 03:59:17;;;;;;;2.65;1.65;;;14.30;99.90;;;;;;5115516;28;20291;-51
2022/10/25 04:01:43;;;;;;;6.30;2.28;;;14.20;99.90;;;;;;5115697;28;20254;-50
2022/10/25 04:04:08;;;;;;;4.93;1.92;;;14.20;99.90;;;;;;5115628;28;20169;-50
2022/10/25 04:06:34;;;;;;;5.75;1.67;;;14.20;99.90;;;;;;5115613;28;20190;-51
2022/10/25 04:08:59;;;;;;;5.68;1.77;;;14.10;99.90;;;;;;5115319;28;20201;-51
2022/10/25 04:11:25;;;;;;;9.35;1.73;;;14.10;99.90;;;;;;5115974;28;20203;-51
2022/10/25 04:13:50;;;;;;;8.30;2.83;;;14.10;99.90;;;;;;5115335;28;20165;-52
2022/10/25 04:16:16;;;;;;;7.68;2.03;;;14.20;99.90;;;;;;5115571;28;20172;-52
2022/10/25 04:18:42;;;;;;;5.82;1.83;;;14.10;99.90;;;;;;5115249;28;20161;-52
2022/10/25 04:21:08;;;;;;;7.25;1.95;;;14.10;99.90;;;;;;5115283;28;20167;-52
2022/10/25 04:23:36;;;;;;;7.75;1.95;;;14.10;99.90;;;;;;5115188;28;20256;-52
2022/10/25 04:26:01;;;;;;;7.15;2.00;;;14.10;99.90;;;;;;5115182;28;20532;-52
2022/10/25 04:28:27;;;;;;;7.75;2.45;;;14.00;99.90;;;;;;5115357;28;20590;-52
2022/10/25 04:30:53;;;;;;;6.60;2.17;;;14.00;99.90;;;;;;5115359;28;20208;-50
2022/10/25 04:33:18;;;;;;;7.80;2.72;;;14.00;99.90;;;;;;5114995;28;20176;-50
2022/10/25 04:35:52;;;;;;;5.88;2.08;;;14.00;99.90;;;;;;5114899;28;20164;-51
2022/10/25 04:38:18;;;;;;;6.68;2.22;;;14.00;99.90;;;;;;5115105;28;20177;-51
2022/10/25 04:40:51;;;;;;;4.40;1.92;;;14.10;99.90;;;;;;5114911;28;20230;-51
2022/10/25 04:43:16;;;;;;;8.70;3.08;;;14.00;99.90;;;;;;5114842;28;20176;-51
2022/10/25 04:45:42;;;;;;;4.47;1.85;;;14.00;99.90;;;;;;5113811;28;20591;-50
2022/10/25 04:48:07;;;;;;;7.93;2.33;;;14.10;99.90;;;;;;5114533;28;20616;-52
2022/10/25 04:50:33;;;;;;;3.85;1.88;;;14.00;99.90;;;;;;5114493;28;20640;-51
2022/10/25 04:52:58;;;;;;;5.65;1.63;;;14.00;99.90;;;;;;5114583;28;20668;-51
2022/10/25 04:55:24;;;;;;;6.03;2.15;;;14.00;99.90;;;;;;5096522;28;20173;-51
2022/10/25 04:57:50;;;;;;;4.70;2.00;;;14.00;99.90;;;;;;5114268;28;20165;-51
2022/10/25 05:00:16;;;;;;;4.95;1.85;;;14.10;99.90;;;;;;5114283;28;20169;-51
2022/10/25 05:02:41;;;;;;;7.45;1.98;;;14.10;99.90;;;;;;5114395;28;20507;-51
2022/10/25 05:05:07;;;;;;;5.30;1.77;;;14.00;99.90;;;;;;5114365;28;20194;-52
2022/10/25 05:07:33;;;;;;;4.05;1.92;;;14.10;99.90;;;;;;5114312;28;20209;-52
2022/10/25 05:09:58;;;;;;;6.45;1.70;;;14.10;99.90;;;;;;5114218;28;20604;-51
2022/10/25 05:12:24;;;;;;;4.82;1.60;;;14.10;99.90;;;;;;5114558;28;20530;-51
2022/10/25 05:14:49;;;;;;;7.47;2.95;;;14.10;99.90;;;;;;5114238;28;20620;-52
2022/10/25 05:17:15;;;;;;;4.75;2.25;;;14.10;99.90;;;;;;5114230;28;20178;-51
2022/10/25 05:19:40;;;;;;;4.00;1.95;;;14.10;99.90;;;;;;5114086;28;20161;-50
2022/10/25 05:22:06;;;;;;;7.47;1.85;;;14.10;99.90;;;;;;5114318;28;20189;-51
2022/10/25 05:24:31;;;;;;;6.78;2.67;;;14.00;99.90;;;;;;5114203;28;20168;-52
2022/10/25 05:26:57;;;;;;;8.32;2.75;;;14.10;99.90;;;;;;5113961;28;20161;-50
2022/10/25 05:29:23;;;;;;;15.07;2.70;;;14.00;99.90;;;;;;5114279;28;20276;-51
2022/10/25 05:31:48;;;;;;;3.03;2.05;;;13.90;99.90;;;;;;5113864;28;20571;-51
2022/10/25 05:34:14;;;;;;;10.50;3.15;;;13.90;99.90;;;;;;5113776;28;20175;-51
2022/10/25 05:36:39;;;;;;;6.63;1.85;;;13.90;99.90;;;;;;5113997;28;20168;-51
2022/10/25 05:39:05;;;;;;;3.85;1.98;;;13.90;99.90;;;;;;5113501;28;20641;-51
2022/10/25 05:41:31;;;;;;;8.55;1.88;;;13.90;99.90;;;;;;5113609;28;20171;-51
2022/10/25 05:43:56;;;;;;;3.70;1.63;;;13.90;99.90;;;;;;5113827;28;20247;-50
2022/10/25 05:46:22;;;;;;;8.48;1.92;;;11.80;99.90;;;;;;5113721;28;20202;-52
2022/10/25 05:48:49;;;;;;;2.92;1.98;;;13.80;99.90;;;;;;5113530;28;20196;-52
2022/10/25 05:51:16;;;;;;;5.03;2.10;;;13.80;99.90;;;;;;5113660;28;20252;-51
2022/10/25 05:53:47;;;;;;;5.35;2.70;;;13.80;99.90;;;;;;5113328;28;20165;-51
2022/10/25 05:56:13;;;;;;;10.82;2.22;;;13.80;99.90;;;;;;5094957;28;20208;-50
2022/10/25 05:58:39;;;;;;;11.15;2.53;;;13.80;99.90;;;;;;5113182;28;20294;-51
2022/10/25 06:01:05;;;;;;;7.40;1.88;;;13.80;99.90;;;;;;5113235;28;20168;-50
2022/10/25 06:03:32;;;;;;;9.02;2.33;;;13.70;99.90;;;;;;5113308;28;20521;-50
2022/10/25 06:06:02;;;;;;;8.30;2.42;;;13.70;99.90;;;;;;5113417;28;20567;-51
2022/10/25 06:08:29;;;;;;;7.30;2.33;;;13.70;99.90;;;;;;5112977;28;20220;-51
2022/10/25 06:10:55;;;;;;;5.13;1.58;;;13.70;99.90;;;;;;5113340;28;20179;-51
2022/10/25 06:13:21;;;;;;;5.50;2.00;;;13.70;99.90;;;;;;5112999;28;20239;-51
2022/10/25 06:15:46;;;;;;;7.80;2.05;;;13.70;99.90;;;;;;5112916;28;20191;-50
2022/10/25 06:18:12;;;;;;;5.85;1.70;;;13.70;99.90;;;;;;5112852;28;20161;-51
2022/10/25 06:20:37;;;;;;;6.13;1.90;;;13.70;99.90;;;;;;5112811;28;20165;-51
2022/10/25 06:23:03;;;;;;;6.75;2.00;;;13.70;99.90;;;;;;5112845;28;20218;-51
2022/10/25 06:25:28;;;;;;;6.68;2.05;;;13.70;99.90;;;;;;5112701;28;20176;-51
2022/10/25 06:27:54;;;;;;;10.00;2.42;;;13.70;99.90;;;;;;5112968;28;20172;-50
2022/10/25 06:30:19;;;;;;;17.38;3.25;;;13.60;99.90;;;;;;5112600;28;20204;-50
2022/10/25 06:32:45;;;;;;;6.95;3.00;;;13.60;99.90;;;;;;5112714;28;20750;-50
2022/10/25 06:35:10;;;;;;;12.93;2.53;;;13.60;99.90;;;;;;5112392;28;20196;-50
2022/10/25 06:37:36;;;;;;;12.50;2.70;;;13.70;99.90;;;;;;5112644;28;20195;-50
2022/10/25 06:40:01;;;;;;;7.13;2.22;;;13.60;99.90;;;;;;5112596;28;20524;-51
2022/10/25 06:42:27;;;;;;;14.23;2.45;;;13.70;99.90;;;;;;5112401;28;20643;-50
2022/10/25 06:44:52;;;;;;;8.02;2.08;;;13.70;99.90;;;;;;5094530;28;20164;-51
2022/10/25 06:47:18;;;;;;;4.47;1.73;;;13.70;99.90;;;;;;5112397;28;20180;-51
2022/10/25 06:49:44;;;;;;;10.45;2.33;;;13.80;99.90;;;;;;5112483;28;20239;-51
2022/10/25 06:52:10;;;;;;;8.07;2.25;;;13.70;99.90;;;;;;5094164;28;20165;-51
2022/10/25 06:54:35;;;;;;;15.15;2.85;;;13.70;99.90;;;;;;5112300;28;20169;-50
2022/10/25 06:57:01;;;;;;;7.60;2.22;;;13.70;99.90;;;;;;5112505;28;20187;-51
2022/10/25 06:59:26;;;;;;;8.48;2.53;;;13.70;99.90;;;;;;5112073;28;20216;-50
2022/10/25 07:01:53;;;;;;;10.32;1.95;;;13.70;99.90;;;;;;5112661;28;20188;-50
2022/10/25 07:04:19;;;;;;;8.07;1.92;;;12.80;99.90;;;;;;5112028;28;20675;-50
2022/10/25 07:06:45;;;;;;;7.47;2.13;;;13.70;99.90;;;;;;5110769;28;20169;-50
2022/10/25 07:09:12;;;;;;;10.85;2.08;;;13.70;99.90;;;;;;5089902;28;20297;-53
2022/10/25 07:11:38;;;;;;;6.45;1.88;;;13.80;99.90;;;;;;5090392;28;20482;-51
2022/10/25 07:14:04;;;;;;;8.40;2.17;;;13.80;99.90;;;;;;5089930;28;20678;-52
2022/10/25 07:16:29;;;;;;;9.32;2.33;;;13.80;99.90;;;;;;5090309;28;20311;-52
2022/10/25 07:19:02;;;;;;;6.55;2.47;;;13.80;99.90;;;;;;5096868;28;20171;-52
2022/10/25 07:21:29;;;;;;;7.32;2.17;;;13.80;99.90;;;;;;5110626;28;20185;-52
2022/10/25 07:23:55;;;;;;;8.18;2.63;;;13.80;99.90;;;;;;5110842;28;20167;-46
2022/10/25 07:26:23;;;;;;;9.32;2.00;;;13.90;99.90;;;;;;5110536;28;20530;-49
2022/10/25 07:28:51;;;;;;;8.05;2.40;;;13.80;99.90;;;;;;5110513;28;20286;-48
2022/10/25 07:31:23;;;;;;;4.80;1.83;;;13.90;99.90;;;;;;5097993;28;20533;-50
2022/10/25 07:33:50;;;;;;;8.55;1.95;;;13.90;99.90;;;;;;5100621;28;20227;-51
2022/10/25 07:36:16;;;;;;;5.30;2.08;;;13.90;99.90;;;;;;5110305;28;20640;-51
2022/10/25 07:38:41;;;;;;;6.28;1.92;;;13.90;99.90;;;;;;5110191;28;20175;-49
2022/10/25 07:41:08;;;;;;;8.23;2.30;;;14.00;99.90;;;;;;5110274;28;20168;-49
2022/10/25 07:43:34;;;;;;;6.60;2.08;;;14.10;99.90;;;;;;5110442;28;20222;-51
2022/10/25 07:45:59;;;;;;;5.50;1.88;;;14.00;99.90;;;;;;5110413;28;20604;-50
2022/10/25 07:48:25;;;;;;;10.27;2.85;;;14.10;99.90;;;;;;5110384;28;20275;-50
2022/10/25 07:50:51;;;;;;;14.85;2.50;;;14.30;99.90;;;;;;5110477;28;20181;-51
2022/10/25 07:53:17;;;;;;;6.40;2.05;;;14.30;99.90;;;;;;5110258;28;20165;-50
2022/10/25 07:55:42;;;;;;;11.73;2.45;;;14.30;99.90;;;;;;5110377;28;20177;-50
2022/10/25 07:58:10;;;;;;;4.95;2.20;;;14.40;99.90;;;;;;5110153;28;20213;-52
2022/10/25 08:00:36;;;;;;;8.75;2.55;;;14.40;99.90;;;;;;5107908;28;20172;-52
2022/10/25 08:03:02;;;;;;;6.50;2.33;;;14.50;99.90;;;;;;5091973;28;20635;-53
2022/10/25 08:05:27;;;;;;;3.50;2.38;;;14.40;99.90;;;;;;5110262;28;20532;-55
2022/10/25 08:07:53;;;;;;;8.88;3.38;;;14.40;99.90;;;;;;5110484;28;20176;-53
2022/10/25 08:10:20;;;;;;;14.75;3.38;;;14.40;99.90;;;;;;5110347;28;20204;-52
2022/10/25 08:12:47;;;;;;;7.35;2.40;;;14.40;99.90;;;;;;5111907;28;20168;-51
2022/10/25 08:15:13;;;;;;;7.97;2.85;;;14.50;99.90;;;;;;5110679;28;20172;-51
2022/10/25 08:17:38;;;;;;;7.38;2.90;;;14.50;99.90;;;;;;5111394;28;20161;-51
2022/10/25 08:20:04;;;;;;;6.28;3.17;;;14.40;99.90;;;;;;5111123;28;20161;-51
2022/10/25 08:22:30;;;;;;;10.82;3.35;;;14.40;99.90;;;;;;5114933;28;20179;-51
2022/10/25 08:24:56;;;;;;;9.88;3.78;;;14.50;99.90;;;;;;5115225;28;20160;-51
2022/10/25 08:27:21;;;;;;;7.50;3.60;;;14.40;99.90;;;;;;5115038;28;20244;-51
2022/10/25 08:29:47;;;;;;;10.60;3.35;;;14.50;99.90;;;;;;5114699;28;20250;-51
2022/10/25 08:32:13;;;;;;;7.45;3.42;;;14.40;99.90;;;;;;5115269;28;20218;-51
2022/10/25 08:34:38;;;;;;;11.90;4.50;;;14.40;99.90;;;;;;5114948;28;20168;-51
2022/10/25 08:37:04;;;;;;;8.82;4.18;;;14.40;99.90;;;;;;5115098;28;20566;-51
2022/10/25 08:39:29;;;;;;;7.18;4.30;;;14.40;99.90;;;;;;5114594;28;20203;-51
2022/10/25 08:41:58;;;;;;;8.35;4.15;;;14.40;99.90;;;;;;5115185;28;20179;-51
2022/10/25 08:44:45;;;;;;;7.50;3.92;;;14.40;99.90;;;;;;5114627;28;20544;-52
2022/10/25 08:47:33;;;;;;;10.07;4.18;;;14.40;99.90;;;;;;5114554;28;20157;-52
2022/10/25 08:50:05;;;;;;;11.38;3.17;;;14.50;99.90;;;;;;5114263;28;20253;-51
2022/10/25 08:52:55;;;;;;;8.07;2.45;;;14.50;99.90;;;;;;5114572;28;20168;-52
2022/10/25 08:55:50;;;;;;;9.30;2.72;;;14.40;99.90;;;;;;5114272;28;20161;-51
2022/10/25 08:58:17;;;;;;;5.90;2.58;;;14.40;99.90;;;;;;5096659;28;20216;-51
2022/10/25 09:00:45;;;;;;;8.68;2.17;;;14.40;99.90;;;;;;5114054;28;20156;-51
2022/10/25 09:03:24;;;;;;;4.88;2.08;;;14.50;99.90;;;;;;5114919;28;20565;-51
2022/10/25 09:06:22;;;;;;;6.80;2.08;;;14.50;99.90;;;;;;5113797;28;20646;-52
2022/10/25 09:09:15;;;;;;;4.32;1.55;;;14.50;99.90;;;;;;5114192;28;20204;-52
2022/10/25 09:11:53;;;;;;;3.88;1.63;;;14.50;99.90;;;;;;5114083;28;20628;-51
2022/10/25 09:14:38;;;;;;;5.47;1.90;;;14.60;99.90;;;;;;5114226;28;20172;-51
2022/10/25 09:17:21;;;;;;;4.35;2.15;;;14.60;99.90;;;;;;5114107;28;20161;-52
2022/10/25 09:20:09;;;;;;;9.10;2.08;;;14.60;99.90;;;;;;5113769;28;20188;-51
2022/10/25 09:22:47;;;;;;;3.35;1.60;;;14.90;99.90;;;;;;5114008;28;20222;-52
2022/10/25 09:25:28;;;;;;;6.03;2.20;;;14.80;99.90;;;;;;5113829;28;20508;-51
2022/10/25 09:27:59;;;;;;;4.68;1.70;;;15.00;99.90;;;;;;5114557;28;20247;-51
2022/10/25 09:30:27;;;;;;;7.85;2.33;;;15.10;99.90;;;;;;5114022;28;20560;-51
2022/10/25 09:33:00;;;;;;;6.00;2.38;;;15.20;99.90;;;;;;5113700;28;20153;-51
2022/10/25 09:35:28;;;;;;;2.70;1.63;;;15.20;99.90;;;;;;5114307;28;20535;-51
2022/10/25 09:38:00;;;;;;;3.55;1.50;;;15.40;99.90;;;;;;5113980;28;20161;-51
2022/10/25 09:40:44;;;;;;;7.50;2.00;;;15.30;99.90;;;;;;5113879;28;20172;-51
2022/10/25 09:43:20;;;;;;;5.65;1.88;;;15.50;99.90;;;;;;5113798;28;20568;-52
2022/10/25 09:45:50;;;;;;;4.00;1.60;;;15.60;99.90;;;;;;5113483;28;20172;-51
2022/10/25 09:48:32;;;;;;;6.30;2.00;;;15.70;99.90;;;;;;5077982;28;20685;-51
2022/10/25 09:51:08;;;;;;;2.95;1.60;;;15.70;99.90;;;;;;5113061;28;20172;-51
2022/10/25 09:53:39;;;;;;;5.07;1.45;;;15.70;99.90;;;;;;5113383;28;20213;-51
2022/10/25 09:56:05;;;;;;;4.60;2.13;;;15.60;99.90;;;;;;5113245;28;20180;-51
2022/10/25 09:58:33;;;;;;;4.50;1.58;;;15.50;99.90;;;;;;5113149;28;20216;-51
2022/10/25 10:01:16;;;;;;;4.78;1.85;;;15.50;99.90;;;;;;5113312;28;20172;-51
2022/10/25 10:03:42;;;;;;;5.05;1.83;;;15.50;99.90;;;;;;5113141;28;20232;-51
2022/10/25 10:06:24;;;;;;;5.05;1.63;;;15.50;99.90;;;;;;5112726;28;20628;-51
2022/10/25 10:08:55;;;;;;;3.40;1.70;;;15.50;99.90;;;;;;5112820;28;20671;-51
2022/10/25 10:11:21;;;;;;;4.57;1.60;;;15.50;99.90;;;;;;5094840;28;20168;-51
2022/10/25 10:13:54;;;;;;;7.47;1.90;;;15.60;99.90;;;;;;5112734;28;20559;-51
2022/10/25 10:16:25;;;;;;;7.68;2.28;;;15.60;99.90;;;;;;5112523;28;20164;-51
2022/10/25 10:18:51;;;;;;;2.42;1.60;;;15.50;99.90;;;;;;5112805;28;20628;-51
2022/10/25 10:21:19;;;;;;;3.50;1.75;;;15.60;99.90;;;;;;5112908;28;20668;-51
2022/10/25 10:23:52;;;;;;;6.68;1.98;;;15.60;99.90;;;;;;5112724;28;20164;-51
2022/10/25 10:26:20;;;;;;;3.97;2.00;;;15.50;99.90;;;;;;5112761;28;20651;-51
2022/10/25 10:28:48;;;;;;;4.80;1.90;;;15.60;99.90;;;;;;5112589;28;20285;-51
2022/10/25 10:31:15;;;;;;;5.97;2.15;;;15.60;99.90;;;;;;5111985;28;20639;-51
2022/10/25 10:33:49;;;;;;;4.35;2.00;;;15.50;99.90;;;;;;5110911;28;20199;-51
2022/10/25 10:36:24;;;;;;;7.47;2.20;;;15.60;99.90;;;;;;5111049;28;20171;-51
2022/10/25 10:38:50;;;;;;;3.95;1.60;;;15.70;99.90;;;;;;5110646;28;20326;-51
2022/10/25 10:41:27;;;;;;;6.15;2.22;;;15.70;99.90;;;;;;5111379;28;20161;-51
2022/10/25 10:44:12;;;;;;;6.72;2.20;;;13.90;99.90;;;;;;5112240;28;20251;-51
2022/10/25 10:46:45;;;;;;;3.33;1.90;;;15.90;99.90;;;;;;5112437;28;20168;-51
2022/10/25 10:49:11;;;;;;;5.82;2.00;;;15.90;99.90;;;;;;5112087;28;20199;-51
2022/10/25 10:51:40;;;;;;;4.82;1.70;;;16.00;99.90;;;;;;5112238;28;20205;-51
2022/10/25 10:54:26;;;;;;;4.85;1.85;;;15.90;99.90;;;;;;5112757;28;20264;-51
2022/10/25 10:57:04;;;;;;;9.23;2.50;;;16.00;99.90;;;;;;5111155;28;20165;-50
2022/10/25 10:59:38;;;;;;;5.22;2.00;;;16.20;99.90;;;;;;5110389;28;20234;-51
2022/10/25 11:02:35;;;;;;;7.53;2.20;;;16.80;99.90;;;;;;5111643;28;20172;-51
2022/10/25 11:05:01;;;;;;;8.35;2.00;;;17.20;99.90;;;;;;5083668;28;20248;-51
2022/10/25 11:07:33;;;;;;;7.63;2.13;;;17.20;99.90;;;;;;5111853;28;20180;-54
2022/10/25 11:10:19;;;;;;;6.32;2.15;;;17.00;99.90;;;;;;5093908;28;20238;-51
2022/10/25 11:13:02;;;;;;;4.93;1.98;;;17.10;99.90;;;;;;5110850;28;20168;-51
2022/10/25 11:15:32;;;;;;;3.20;1.23;;;17.10;99.90;;;;;;5110388;28;20249;-51
2022/10/25 11:18:03;;;;;;;3.95;1.52;;;17.20;99.90;;;;;;5110648;28;20183;-51
2022/10/25 11:20:45;;;;;;;5.43;1.40;;;17.20;99.90;;;;;;5110321;28;20599;-51
2022/10/25 11:23:41;;;;;;;4.50;1.35;;;17.10;99.90;;;;;;5110420;28;20620;-51
2022/10/25 11:26:30;;;;;;;5.07;1.35;;;17.10;99.90;;;;;;5111955;28;20666;-51
2022/10/25 11:29:21;;;;;;;4.82;1.55;;;17.20;99.90;;;;;;5111092;28;20577;-51
2022/10/25 11:31:57;;;;;;;2.65;1.38;;;17.30;99.90;;;;;;5109999;28;20196;-51
2022/10/25 11:34:47;;;;;;;8.30;2.05;;;17.30;99.90;;;;;;5110485;28;20161;-51
2022/10/25 11:37:25;;;;;;;5.13;1.80;;;17.10;99.90;;;;;;5091745;28;20173;-51
2022/10/25 11:40:05;;;;;;;3.60;0.93;;;17.10;99.90;;;;;;5109880;28;20152;-51
2022/10/25 11:42:58;;;;;;;4.30;1.13;;;17.00;99.90;;;;;;5109782;28;20164;-51
2022/10/25 11:46:02;;;;;;;3.78;1.08;;;16.90;99.90;;;;;;5112075;28;20161;-51
2022/10/25 11:48:45;;;;;;;3.05;1.50;;;16.90;99.90;;;;;;5098206;28;20659;-50
2022/10/25 11:51:40;;;;;;;4.82;1.10;;;16.70;99.90;;;;;;5111690;28;20173;-51
2022/10/25 11:54:12;;;;;;;2.40;1.25;;;16.70;99.90;;;;;;5112261;28;20669;-51
2022/10/25 11:56:54;;;;;;;7.43;1.35;;;16.80;99.90;;;;;;5114937;28;20169;-51
2022/10/25 11:59:45;;;;;;;7.20;1.42;;;16.80;99.90;;;;;;5114122;28;20212;-51
2022/10/25 12:02:37;;;;;;;6.50;1.52;;;16.70;99.90;;;;;;5114254;28;20171;-51
2022/10/25 12:05:24;;;;;;;6.18;1.48;;;16.70;99.90;;;;;;5115669;28;20165;-51
2022/10/25 12:07:55;;;;;;;3.42;1.23;;;16.60;99.90;;;;;;5115496;28;20256;-50
2022/10/25 12:10:34;;;;;;;3.65;1.27;;;16.60;99.90;;;;;;5113512;28;20261;-50
2022/10/25 12:13:08;;;;;;;4.43;1.70;;;16.70;99.90;;;;;;5113590;28;20188;-51
2022/10/25 12:15:47;;;;;;;3.83;1.67;;;16.80;99.90;;;;;;5113714;28;20697;-51
2022/10/25 12:18:26;;;;;;;3.03;1.42;;;16.90;99.90;;;;;;5114058;28;20202;-51
2022/10/25 12:20:53;;;;;;;3.30;1.38;;;17.20;99.90;;;;;;5113839;28;20194;-51
2022/10/25 12:23:23;;;;;;;5.45;1.40;;;17.30;99.90;;;;;;5113524;28;20168;-51
2022/10/25 12:26:10;;;;;;;6.95;1.15;;;17.40;99.90;;;;;;5096816;28;20658;-51
2022/10/25 12:28:46;;;;;;;5.18;1.48;;;17.30;99.90;;;;;;5115143;28;20189;-53
2022/10/25 12:31:28;;;;;;;2.03;1.25;;;17.10;99.90;;;;;;5114963;28;20559;-52
2022/10/25 12:34:18;;;;;;;5.63;1.52;;;17.10;99.90;;;;;;5114900;28;20205;-51
2022/10/25 12:36:56;;;;;;;3.13;1.20;;;16.80;99.90;;;;;;5113184;28;20255;-51
2022/10/25 12:39:29;;;;;;;3.67;1.50;;;16.80;99.90;;;;;;5113297;28;20184;-51
2022/10/25 12:42:04;;;;;;;5.32;1.88;;;16.80;99.90;;;;;;5113401;28;20226;-52
2022/10/25 12:45:00;;;;;;;2.65;0.90;;;16.70;99.90;;;;;;5112941;28;20168;-51
2022/10/25 12:47:45;;;;;;;7.85;1.55;;;16.80;99.90;;;;;;5113811;28;20168;-51
2022/10/25 12:50:31;;;;;;;3.20;1.00;;;16.80;99.90;;;;;;5114042;28;20249;-51
2022/10/25 12:53:32;;;;;;;4.97;1.23;;;16.70;99.90;;;;;;5114669;28;20160;-51
2022/10/25 12:56:23;;;;;;;2.05;1.17;;;16.70;99.90;;;;;;5113840;28;20701;-51
2022/10/25 12:59:05;;;;;;;3.92;1.33;;;16.80;99.90;;;;;;5114650;28;20295;-51
2022/10/25 13:01:37;;;;;;;4.07;1.67;;;16.80;99.90;;;;;;5113911;28;20231;-51
2022/10/25 13:04:32;;;;;;;4.43;1.10;;;16.80;99.90;;;;;;5113733;28;20165;-51
2022/10/25 13:06:59;;;;;;;3.15;1.25;;;17.00;99.90;;;;;;5112629;28;20580;-51